Airfield :
LOGIN :

Register | Disclaimer

   EN    FR    IT 

 










Legend :    VFR   Marginal VFR   IFR   Intensive IFR   Very Intensive IFR
Visi :
Ceiling :
>= 8 km
>= 3000ft
5 to 8 km
1000 to 3000 ft
1500m to 5 km
500 to 1000 ft
800 to 1500m
200 to 500 ft
< 800m
< 200 ft
Symbols :   Thunderstorms  Fog  Heavy snow  Heavy precipitations  Wind > 20 kt
SIGMETs :     Misc.  Thunderstorms  Icing  Turbulence  Mountain Waves  Volcanic Ashes






- Airport Elevation : 401 ft
- IATA code : LEQ


EGHC - Land's End

CURRENT METAR :
  • 271620Z 20013KT 8000 -RADZ FEW003 BKN007 13/12 Q1014

EXPIRED METARs :
  • 271550Z 20013KT 9000 -RADZ FEW003 BKN007 12/12 Q1015
  • 271520Z 20010KT 8000 -SHRA FEW008 SCT030 13/12 Q1015
  • 271450Z 22011KT 9999 VCSH FEW012 SCT025 12/11 Q1015
  • 271420Z 20011KT 9999 VCSH FEW014 SCT035 12/10 Q1016
  • 271350Z 22013KT 9999 VCSH FEW010 SCT018 14/10 Q1016
  • 271320Z 23011KT 9999 FEW012 14/10 Q1016
  • 271250Z 23012KT 9999 FEW012 14/11 Q1016
  • 271220Z 23013KT 9999 FEW015 14/11 Q1016
  • 271150Z 24012KT 9999 FEW009 SCT035 14/11 Q1016

TAF TAF EGHC
Valid from the 27 at 15:00 until the 27 at 18:00 UTC


271357Z 2715/2718 23012KT 9999 FEW020
TEMPO 2715/2718 6000 -RADZ BKN007
PROB30 2715/2718 3000 RADZ BR BKN002



MET'MAP, your aeronautical weather chart ! - Copyright ORBIFLY December 2007 - Disclaimer

ORBIFLY MET'MAP TEAM :

Programming & Development : Alexandra Zaïnal
Original concept : Baudouin d'Aumeries
Technical & hardware support : Manuel Goepfert
Assistance : Marc-Olivier Méhu




SOURCES & CREDITS :

   NOAA